Terminal Aerodrome Forecast
Issued by NWS

Home | Current Version | Previous Version | Text Only | Print | Product List | Glossary On
Versions: 1 2 3 4 5 6 7 8 9 10 11 12 13 14 15 16 17 18
696
FTUS41 KBGM 250904 AAA
TAFRME
TAF AMD
KRME 250904Z 2509/2606 12005KT P6SM SCT007 OVC015
      TEMPO 2509/2513 4SM -DZ BR OVC007
     FM251300 VRB04KT P6SM OVC012
     FM251900 VRB03KT P6SM OVC020
     FM252300 00000KT P6SM BKN035=

USA.gov is the U.S. government's official web portal to all federal, state and local government web resources and services.